sensor_id;sensor_type;location;lat;lon;timestamp;pressure;altitude;pressure_sealevel;temperature;humidity
55217;BME280;41086;46.736;15.666;2024-01-07T00:02:20;97095.06;;;6.70;100.00
55217;BME280;41086;46.736;15.666;2024-01-07T00:04:47;97076.75;;;6.68;100.00
55217;BME280;41086;46.736;15.666;2024-01-07T00:07:14;97086.84;;;6.85;100.00
55217;BME280;41086;46.736;15.666;2024-01-07T00:09:40;97084.69;;;6.79;100.00
55217;BME280;41086;46.736;15.666;2024-01-07T00:12:07;97083.72;;;6.80;100.00
55217;BME280;41086;46.736;15.666;2024-01-07T00:14:34;97077.97;;;6.75;100.00
55217;BME280;41086;46.736;15.666;2024-01-07T00:17:01;97051.25;;;6.57;100.00
55217;BME280;41086;46.736;15.666;2024-01-07T00:19:28;97058.47;;;6.78;100.00
55217;BME280;41086;46.736;15.666;2024-01-07T00:21:58;97077.31;;;6.96;100.00
55217;BME280;41086;46.736;15.666;2024-01-07T00:24:24;97076.97;;;7.00;100.00
55217;BME280;41086;46.736;15.666;2024-01-07T00:26:55;97072.38;;;6.91;100.00
55217;BME280;41086;46.736;15.666;2024-01-07T00:29:22;97076.47;;;6.95;100.00
55217;BME280;41086;46.736;15.666;2024-01-07T00:31:48;97064.72;;;6.99;100.00
55217;BME280;41086;46.736;15.666;2024-01-07T00:34:15;97069.50;;;6.94;100.00
55217;BME280;41086;46.736;15.666;2024-01-07T00:36:42;97069.72;;;6.91;100.00
55217;BME280;41086;46.736;15.666;2024-01-07T00:39:09;97074.75;;;6.94;100.00
55217;BME280;41086;46.736;15.666;2024-01-07T00:41:36;97065.88;;;6.84;100.00
55217;BME280;41086;46.736;15.666;2024-01-07T00:44:03;97070.69;;;6.79;100.00
55217;BME280;41086;46.736;15.666;2024-01-07T00:46:30;97062.13;;;6.64;100.00
55217;BME280;41086;46.736;15.666;2024-01-07T00:48:57;97067.25;;;6.54;100.00
55217;BME280;41086;46.736;15.666;2024-01-07T00:51:24;97069.19;;;6.63;100.00
55217;BME280;41086;46.736;15.666;2024-01-07T00:53:50;97066.91;;;6.59;100.00
55217;BME280;41086;46.736;15.666;2024-01-07T00:56:17;97066.56;;;6.63;100.00
55217;BME280;41086;46.736;15.666;2024-01-07T00:58:44;97068.66;;;6.82;100.00
55217;BME280;41086;46.736;15.666;2024-01-07T01:01:11;97069.00;;;6.89;100.00
55217;BME280;41086;46.736;15.666;2024-01-07T01:03:38;97072.13;;;6.83;100.00
55217;BME280;41086;46.736;15.666;2024-01-07T01:06:05;97069.72;;;6.91;100.00
55217;BME280;41086;46.736;15.666;2024-01-07T01:08:32;97075.84;;;7.03;100.00
55217;BME280;41086;46.736;15.666;2024-01-07T01:10:59;97061.47;;;6.84;100.00
55217;BME280;41086;46.736;15.666;2024-01-07T01:13:25;97069.72;;;6.80;100.00
55217;BME280;41086;46.736;15.666;2024-01-07T01:15:52;97076.69;;;6.92;100.00
55217;BME280;41086;46.736;15.666;2024-01-07T01:18:19;97072.50;;;6.90;100.00
55217;BME280;41086;46.736;15.666;2024-01-07T01:20:46;97076.06;;;6.77;100.00
55217;BME280;41086;46.736;15.666;2024-01-07T01:23:13;97070.31;;;6.83;100.00
55217;BME280;41086;46.736;15.666;2024-01-07T01:25:39;97053.31;;;6.76;100.00
55217;BME280;41086;46.736;15.666;2024-01-07T01:28:06;97078.38;;;6.93;100.00
55217;BME280;41086;46.736;15.666;2024-01-07T01:30:33;97075.59;;;6.95;100.00
55217;BME280;41086;46.736;15.666;2024-01-07T01:33:01;97028.66;;;6.77;100.00
55217;BME280;41086;46.736;15.666;2024-01-07T01:35:28;97056.09;;;6.97;100.00
55217;BME280;41086;46.736;15.666;2024-01-07T01:37:55;97063.41;;;7.16;100.00
55217;BME280;41086;46.736;15.666;2024-01-07T01:40:22;97072.88;;;7.19;100.00
55217;BME280;41086;46.736;15.666;2024-01-07T01:42:49;97067.84;;;7.04;100.00
55217;BME280;41086;46.736;15.666;2024-01-07T01:45:16;97055.34;;;6.84;100.00
55217;BME280;41086;46.736;15.666;2024-01-07T01:47:43;97064.59;;;6.90;100.00
55217;BME280;41086;46.736;15.666;2024-01-07T01:50:10;97065.22;;;7.04;100.00
55217;BME280;41086;46.736;15.666;2024-01-07T01:52:38;97057.66;;;7.00;100.00
55217;BME280;41086;46.736;15.666;2024-01-07T01:55:06;97057.16;;;6.83;100.00
55217;BME280;41086;46.736;15.666;2024-01-07T01:57:34;97057.66;;;7.00;100.00
55217;BME280;41086;46.736;15.666;2024-01-07T02:00:04;97059.72;;;7.07;100.00
55217;BME280;41086;46.736;15.666;2024-01-07T02:02:32;97057.88;;;6.85;100.00
55217;BME280;41086;46.736;15.666;2024-01-07T02:05:02;97058.34;;;6.79;100.00
55217;BME280;41086;46.736;15.666;2024-01-07T02:07:32;97038.56;;;6.62;100.00
55217;BME280;41086;46.736;15.666;2024-01-07T02:09:59;97051.88;;;6.83;100.00
55217;BME280;41086;46.736;15.666;2024-01-07T02:12:27;97004.94;;;6.55;100.00
55217;BME280;41086;46.736;15.666;2024-01-07T02:14:53;97043.63;;;6.77;100.00
55217;BME280;41086;46.736;15.666;2024-01-07T02:17:20;97037.59;;;6.63;100.00
55217;BME280;41086;46.736;15.666;2024-01-07T02:19:47;97048.72;;;6.67;100.00
55217;BME280;41086;46.736;15.666;2024-01-07T02:22:14;97045.91;;;6.81;100.00
55217;BME280;41086;46.736;15.666;2024-01-07T02:24:41;97047.19;;;6.76;100.00
55217;BME280;41086;46.736;15.666;2024-01-07T02:27:08;97053.09;;;6.91;100.00
55217;BME280;41086;46.736;15.666;2024-01-07T02:29:35;97049.16;;;6.96;100.00
55217;BME280;41086;46.736;15.666;2024-01-07T02:32:02;97039.13;;;7.01;100.00
55217;BME280;41086;46.736;15.666;2024-01-07T02:34:29;97056.09;;;6.97;100.00
55217;BME280;41086;46.736;15.666;2024-01-07T02:36:56;97060.28;;;7.00;100.00
55217;BME280;41086;46.736;15.666;2024-01-07T02:39:22;97050.38;;;7.15;100.00
55217;BME280;41086;46.736;15.666;2024-01-07T02:41:50;97058.38;;;7.24;100.00
55217;BME280;41086;46.736;15.666;2024-01-07T02:44:17;97066.31;;;7.36;100.00
55217;BME280;41086;46.736;15.666;2024-01-07T02:46:44;97065.25;;;7.49;100.00
55217;BME280;41086;46.736;15.666;2024-01-07T02:49:12;97057.31;;;7.38;100.00
55217;BME280;41086;46.736;15.666;2024-01-07T02:51:40;97065.22;;;7.61;100.00
55217;BME280;41086;46.736;15.666;2024-01-07T02:54:07;97066.44;;;8.11;100.00
55217;BME280;41086;46.736;15.666;2024-01-07T02:56:34;97055.56;;;8.37;100.00
55217;BME280;41086;46.736;15.666;2024-01-07T02:59:00;97069.53;;;8.60;100.00
55217;BME280;41086;46.736;15.666;2024-01-07T03:01:27;97074.31;;;8.66;100.00
55217;BME280;41086;46.736;15.666;2024-01-07T03:03:54;97068.63;;;8.71;100.00
55217;BME280;41086;46.736;15.666;2024-01-07T03:06:21;97061.75;;;8.58;100.00
55217;BME280;41086;46.736;15.666;2024-01-07T03:08:48;97061.25;;;8.21;100.00
55217;BME280;41086;46.736;15.666;2024-01-07T03:11:16;97078.00;;;7.99;100.00
55217;BME280;41086;46.736;15.666;2024-01-07T03:13:42;97064.25;;;7.73;100.00
55217;BME280;41086;46.736;15.666;2024-01-07T03:16:19;97052.03;;;7.16;100.00
55217;BME280;41086;46.736;15.666;2024-01-07T03:18:46;97060.69;;;7.18;100.00
55217;BME280;41086;46.736;15.666;2024-01-07T03:21:20;97068.09;;;7.35;100.00
55217;BME280;41086;46.736;15.666;2024-01-07T03:23:48;97071.94;;;7.53;100.00
55217;BME280;41086;46.736;15.666;2024-01-07T03:26:17;97069.03;;;7.68;100.00
55217;BME280;41086;46.736;15.666;2024-01-07T03:28:44;97075.88;;;7.59;100.00
55217;BME280;41086;46.736;15.666;2024-01-07T03:31:15;97064.88;;;7.31;100.00
55217;BME280;41086;46.736;15.666;2024-01-07T03:33:43;97062.22;;;7.09;100.00
55217;BME280;41086;46.736;15.666;2024-01-07T03:36:11;97071.03;;;6.85;100.00
55217;BME280;41086;46.736;15.666;2024-01-07T03:38:39;97069.50;;;7.05;100.00
55217;BME280;41086;46.736;15.666;2024-01-07T03:41:07;97074.59;;;7.31;100.00
55217;BME280;41086;46.736;15.666;2024-01-07T03:43:34;97068.19;;;7.00;100.00
55217;BME280;41086;46.736;15.666;2024-01-07T03:46:01;97074.53;;;6.97;100.00
55217;BME280;41086;46.736;15.666;2024-01-07T03:48:28;97081.59;;;6.97;100.00
55217;BME280;41086;46.736;15.666;2024-01-07T03:50:55;97075.59;;;6.83;100.00
55217;BME280;41086;46.736;15.666;2024-01-07T03:53:21;97078.84;;;6.98;100.00
55217;BME280;41086;46.736;15.666;2024-01-07T03:55:48;97073.59;;;6.98;100.00
55217;BME280;41086;46.736;15.666;2024-01-07T03:58:15;97078.38;;;6.93;100.00
55217;BME280;41086;46.736;15.666;2024-01-07T04:00:42;97081.25;;;6.90;100.00
55217;BME280;41086;46.736;15.666;2024-01-07T04:03:09;97082.09;;;7.02;100.00
55217;BME280;41086;46.736;15.666;2024-01-07T04:05:36;97079.28;;;6.81;100.00
55217;BME280;41086;46.736;15.666;2024-01-07T04:08:04;97088.56;;;6.98;100.00
55217;BME280;41086;46.736;15.666;2024-01-07T04:10:31;97079.19;;;6.94;100.00
55217;BME280;41086;46.736;15.666;2024-01-07T04:12:58;97088.31;;;6.90;100.00
55217;BME280;41086;46.736;15.666;2024-01-07T04:15:25;97083.38;;;6.85;100.00
55217;BME280;41086;46.736;15.666;2024-01-07T04:17:51;97092.34;;;6.82;100.00
55217;BME280;41086;46.736;15.666;2024-01-07T04:20:19;97086.59;;;6.77;100.00
55217;BME280;41086;46.736;15.666;2024-01-07T04:22:45;97087.00;;;6.95;100.00
55217;BME280;41086;46.736;15.666;2024-01-07T04:25:12;97095.13;;;6.92;100.00
55217;BME280;41086;46.736;15.666;2024-01-07T04:27:39;97095.19;;;6.68;100.00
55217;BME280;41086;46.736;15.666;2024-01-07T04:30:06;97100.28;;;6.94;100.00
55217;BME280;41086;46.736;15.666;2024-01-07T04:32:33;97093.19;;;6.94;100.00
55217;BME280;41086;46.736;15.666;2024-01-07T04:35:00;97104.00;;;7.14;100.00
55217;BME280;41086;46.736;15.666;2024-01-07T04:37:27;97100.31;;;7.16;100.00
55217;BME280;41086;46.736;15.666;2024-01-07T04:39:53;97106.94;;;7.33;100.00
55217;BME280;41086;46.736;15.666;2024-01-07T04:42:20;97105.47;;;7.40;100.00
55217;BME280;41086;46.736;15.666;2024-01-07T04:44:47;97101.63;;;7.22;100.00
55217;BME280;41086;46.736;15.666;2024-01-07T04:47:28;97107.53;;;7.25;100.00
55217;BME280;41086;46.736;15.666;2024-01-07T04:49:56;97109.34;;;7.36;100.00
55217;BME280;41086;46.736;15.666;2024-01-07T04:52:24;97118.56;;;7.64;100.00
55217;BME280;41086;46.736;15.666;2024-01-07T04:54:51;97114.47;;;7.83;100.00
55217;BME280;41086;46.736;15.666;2024-01-07T04:57:18;97121.53;;;8.05;100.00
55217;BME280;41086;46.736;15.666;2024-01-07T04:59:46;97118.75;;;7.95;100.00
55217;BME280;41086;46.736;15.666;2024-01-07T05:02:13;97128.47;;;8.06;100.00
55217;BME280;41086;46.736;15.666;2024-01-07T05:04:41;97124.88;;;8.07;100.00
55217;BME280;41086;46.736;15.666;2024-01-07T05:07:08;97127.41;;;7.97;100.00
55217;BME280;41086;46.736;15.666;2024-01-07T05:09:34;97130.53;;;7.91;100.00
55217;BME280;41086;46.736;15.666;2024-01-07T05:12:01;97129.69;;;8.02;100.00
55217;BME280;41086;46.736;15.666;2024-01-07T05:14:28;97121.44;;;7.61;100.00
55217;BME280;41086;46.736;15.666;2024-01-07T05:16:55;97132.72;;;7.63;100.00
55217;BME280;41086;46.736;15.666;2024-01-07T05:19:22;97120.47;;;7.40;100.00
55217;BME280;41086;46.736;15.666;2024-01-07T05:21:49;97135.22;;;7.42;100.00
55217;BME280;41086;46.736;15.666;2024-01-07T05:24:16;97141.78;;;7.70;100.00
55217;BME280;41086;46.736;15.666;2024-01-07T05:26:44;97146.44;;;8.00;100.00
55217;BME280;41086;46.736;15.666;2024-01-07T05:29:11;97149.47;;;8.07;100.00
55217;BME280;41086;46.736;15.666;2024-01-07T05:31:41;97144.69;;;8.01;100.00
55217;BME280;41086;46.736;15.666;2024-01-07T05:34:08;97138.66;;;8.10;100.00
55217;BME280;41086;46.736;15.666;2024-01-07T05:36:35;97144.88;;;8.20;100.00
55217;BME280;41086;46.736;15.666;2024-01-07T05:39:02;97137.09;;;8.08;100.00
55217;BME280;41086;46.736;15.666;2024-01-07T05:41:29;97149.50;;;7.85;100.00
55217;BME280;41086;46.736;15.666;2024-01-07T05:43:56;97148.88;;;7.59;100.00
55217;BME280;41086;46.736;15.666;2024-01-07T05:46:23;97151.75;;;7.67;100.00
55217;BME280;41086;46.736;15.666;2024-01-07T05:48:50;97153.44;;;7.79;100.00
55217;BME280;41086;46.736;15.666;2024-01-07T05:51:17;97147.56;;;7.75;100.00
55217;BME280;41086;46.736;15.666;2024-01-07T05:53:44;97140.25;;;7.90;100.00
55217;BME280;41086;46.736;15.666;2024-01-07T05:56:12;97137.94;;;8.08;100.00
55217;BME280;41086;46.736;15.666;2024-01-07T05:58:39;97151.34;;;8.16;100.00
55217;BME280;41086;46.736;15.666;2024-01-07T06:01:07;97146.19;;;8.26;100.00
55217;BME280;41086;46.736;15.666;2024-01-07T06:03:34;97152.78;;;8.43;100.00
55217;BME280;41086;46.736;15.666;2024-01-07T06:06:02;97159.47;;;8.36;100.00
55217;BME280;41086;46.736;15.666;2024-01-07T06:08:28;97148.75;;;7.94;100.00
55217;BME280;41086;46.736;15.666;2024-01-07T06:10:55;97126.84;;;7.71;100.00
55217;BME280;41086;46.736;15.666;2024-01-07T06:13:22;97149.84;;;7.80;100.00
55217;BME280;41086;46.736;15.666;2024-01-07T06:15:49;97151.16;;;7.74;100.00
55217;BME280;41086;46.736;15.666;2024-01-07T06:18:16;97158.09;;;7.75;100.00
55217;BME280;41086;46.736;15.666;2024-01-07T06:20:43;97154.53;;;7.88;100.00
55217;BME280;41086;46.736;15.666;2024-01-07T06:23:09;97161.22;;;7.92;100.00
55217;BME280;41086;46.736;15.666;2024-01-07T06:25:36;97165.78;;;7.90;100.00
55217;BME280;41086;46.736;15.666;2024-01-07T06:28:03;97165.19;;;7.86;100.00
55217;BME280;41086;46.736;15.666;2024-01-07T06:30:30;97170.94;;;7.80;100.00
55217;BME280;41086;46.736;15.666;2024-01-07T06:32:57;97165.53;;;7.70;100.00
55217;BME280;41086;46.736;15.666;2024-01-07T06:35:24;97171.66;;;7.93;100.00
55217;BME280;41086;46.736;15.666;2024-01-07T06:37:51;97163.25;;;7.99;100.00
55217;BME280;41086;46.736;15.666;2024-01-07T06:40:17;97169.97;;;8.04;100.00
55217;BME280;41086;46.736;15.666;2024-01-07T06:42:44;97184.25;;;7.90;100.00
55217;BME280;41086;46.736;15.666;2024-01-07T06:45:11;97171.66;;;7.71;100.00
55217;BME280;41086;46.736;15.666;2024-01-07T06:47:38;97180.75;;;7.67;100.00
55217;BME280;41086;46.736;15.666;2024-01-07T06:50:05;97188.59;;;7.22;100.00
55217;BME280;41086;46.736;15.666;2024-01-07T06:52:32;97186.28;;;7.06;100.00
55217;BME280;41086;46.736;15.666;2024-01-07T06:54:59;97189.06;;;7.16;100.00
55217;BME280;41086;46.736;15.666;2024-01-07T06:57:26;97187.09;;;7.42;100.00
55217;BME280;41086;46.736;15.666;2024-01-07T06:59:53;97181.72;;;7.54;100.00
55217;BME280;41086;46.736;15.666;2024-01-07T07:02:20;97192.38;;;7.53;100.00
55217;BME280;41086;46.736;15.666;2024-01-07T07:04:48;97176.41;;;7.43;100.00
55217;BME280;41086;46.736;15.666;2024-01-07T07:07:15;97190.22;;;7.47;100.00
55217;BME280;41086;46.736;15.666;2024-01-07T07:09:42;97201.22;;;7.41;100.00
55217;BME280;41086;46.736;15.666;2024-01-07T07:12:08;97192.59;;;7.39;100.00
55217;BME280;41086;46.736;15.666;2024-01-07T07:14:35;97197.38;;;7.33;100.00
55217;BME280;41086;46.736;15.666;2024-01-07T07:17:02;97202.88;;;7.30;100.00
55217;BME280;41086;46.736;15.666;2024-01-07T07:19:29;97206.34;;;7.31;100.00
55217;BME280;41086;46.736;15.666;2024-01-07T07:21:56;97212.09;;;7.25;100.00
55217;BME280;41086;46.736;15.666;2024-01-07T07:24:23;97207.56;;;7.03;100.00
55217;BME280;41086;46.736;15.666;2024-01-07T07:26:50;97212.31;;;7.22;100.00
55217;BME280;41086;46.736;15.666;2024-01-07T07:29:17;97216.19;;;7.40;100.00
55217;BME280;41086;46.736;15.666;2024-01-07T07:31:43;97218.03;;;7.62;100.00
55217;BME280;41086;46.736;15.666;2024-01-07T07:34:10;97221.16;;;7.78;100.00
55217;BME280;41086;46.736;15.666;2024-01-07T07:36:38;97217.81;;;7.76;100.00
55217;BME280;41086;46.736;15.666;2024-01-07T07:39:07;97198.25;;;7.57;100.00
55217;BME280;41086;46.736;15.666;2024-01-07T07:41:35;97213.88;;;7.71;100.00
55217;BME280;41086;46.736;15.666;2024-01-07T07:44:02;97224.28;;;7.72;100.00
55217;BME280;41086;46.736;15.666;2024-01-07T07:46:30;97222.13;;;7.66;100.00
55217;BME280;41086;46.736;15.666;2024-01-07T07:48:56;97233.16;;;7.71;100.00
55217;BME280;41086;46.736;15.666;2024-01-07T07:51:23;97236.97;;;7.56;100.00
55217;BME280;41086;46.736;15.666;2024-01-07T07:53:50;97239.34;;;7.59;100.00
55217;BME280;41086;46.736;15.666;2024-01-07T07:56:17;97223.78;;;7.78;100.00
55217;BME280;41086;46.736;15.666;2024-01-07T07:58:44;97232.22;;;8.06;100.00
55217;BME280;41086;46.736;15.666;2024-01-07T08:01:11;97236.63;;;8.17;100.00
55217;BME280;41086;46.736;15.666;2024-01-07T08:03:38;97243.47;;;7.97;100.00
55217;BME280;41086;46.736;15.666;2024-01-07T08:06:05;97232.69;;;8.00;100.00
55217;BME280;41086;46.736;15.666;2024-01-07T08:08:36;97236.16;;;7.78;100.00
55217;BME280;41086;46.736;15.666;2024-01-07T08:11:03;97244.78;;;7.91;100.00
55217;BME280;41086;46.736;15.666;2024-01-07T08:13:35;97245.69;;;7.57;100.00
55217;BME280;41086;46.736;15.666;2024-01-07T08:16:03;97253.13;;;7.51;100.00
55217;BME280;41086;46.736;15.666;2024-01-07T08:18:31;97242.81;;;7.48;100.00
55217;BME280;41086;46.736;15.666;2024-01-07T08:20:58;97247.25;;;7.48;100.00
55217;BME280;41086;46.736;15.666;2024-01-07T08:23:26;97249.38;;;7.43;100.00
55217;BME280;41086;46.736;15.666;2024-01-07T08:25:53;97226.94;;;7.26;100.00
55217;BME280;41086;46.736;15.666;2024-01-07T08:28:20;97254.56;;;7.44;100.00
55217;BME280;41086;46.736;15.666;2024-01-07T08:30:47;97254.28;;;7.36;100.00
55217;BME280;41086;46.736;15.666;2024-01-07T08:33:15;97255.50;;;7.43;100.00
55217;BME280;41086;46.736;15.666;2024-01-07T08:35:43;97257.63;;;7.38;100.00
55217;BME280;41086;46.736;15.666;2024-01-07T08:38:09;97261.53;;;7.57;100.00
55217;BME280;41086;46.736;15.666;2024-01-07T08:40:36;97269.34;;;7.69;100.00
55217;BME280;41086;46.736;15.666;2024-01-07T08:43:03;97263.34;;;7.67;100.00
55217;BME280;41086;46.736;15.666;2024-01-07T08:45:30;97256.75;;;7.62;100.00
55217;BME280;41086;46.736;15.666;2024-01-07T08:47:59;97279.56;;;7.85;100.00
55217;BME280;41086;46.736;15.666;2024-01-07T08:50:26;97286.31;;;8.23;100.00
55217;BME280;41086;46.736;15.666;2024-01-07T08:52:52;97293.19;;;8.48;100.00
55217;BME280;41086;46.736;15.666;2024-01-07T08:55:19;97299.19;;;8.61;100.00
55217;BME280;41086;46.736;15.666;2024-01-07T08:57:46;97298.72;;;8.45;100.00
55217;BME280;41086;46.736;15.666;2024-01-07T09:00:16;97306.72;;;8.43;100.00
55217;BME280;41086;46.736;15.666;2024-01-07T09:02:42;97310.00;;;8.47;100.00
55217;BME280;41086;46.736;15.666;2024-01-07T09:05:10;97313.72;;;8.45;100.00
55217;BME280;41086;46.736;15.666;2024-01-07T09:07:38;97313.09;;;8.41;100.00
55217;BME280;41086;46.736;15.666;2024-01-07T09:10:05;97319.47;;;8.50;100.00
55217;BME280;41086;46.736;15.666;2024-01-07T09:12:37;97317.69;;;8.50;100.00
55217;BME280;41086;46.736;15.666;2024-01-07T09:15:05;97315.97;;;8.49;100.00
55217;BME280;41086;46.736;15.666;2024-01-07T09:17:38;97319.94;;;8.55;100.00
55217;BME280;41086;46.736;15.666;2024-01-07T09:20:09;97304.56;;;8.37;100.00
55217;BME280;41086;46.736;15.666;2024-01-07T09:22:37;97315.72;;;8.41;100.00
55217;BME280;41086;46.736;15.666;2024-01-07T09:25:05;97324.97;;;8.47;100.00
55217;BME280;41086;46.736;15.666;2024-01-07T09:27:32;97326.53;;;8.49;100.00
55217;BME280;41086;46.736;15.666;2024-01-07T09:30:00;97327.16;;;8.53;100.00
55217;BME280;41086;46.736;15.666;2024-01-07T09:32:28;97324.03;;;8.48;100.00
55217;BME280;41086;46.736;15.666;2024-01-07T09:34:54;97329.19;;;8.49;100.00
55217;BME280;41086;46.736;15.666;2024-01-07T09:37:22;97328.34;;;8.49;100.00
55217;BME280;41086;46.736;15.666;2024-01-07T09:39:49;97327.50;;;8.48;100.00
55217;BME280;41086;46.736;15.666;2024-01-07T09:42:16;97329.41;;;8.46;100.00
55217;BME280;41086;46.736;15.666;2024-01-07T09:44:44;97328.41;;;8.36;100.00
55217;BME280;41086;46.736;15.666;2024-01-07T09:47:12;97332.53;;;8.40;100.00
55217;BME280;41086;46.736;15.666;2024-01-07T09:49:40;97330.88;;;8.39;100.00
55217;BME280;41086;46.736;15.666;2024-01-07T09:52:08;97335.16;;;8.29;100.00
55217;BME280;41086;46.736;15.666;2024-01-07T09:54:37;97332.75;;;8.26;99.73
55217;BME280;41086;46.736;15.666;2024-01-07T09:57:08;97339.34;;;8.31;98.75
55217;BME280;41086;46.736;15.666;2024-01-07T09:59:35;97339.34;;;8.31;99.64
55217;BME280;41086;46.736;15.666;2024-01-07T10:02:03;97343.91;;;8.29;99.92
55217;BME280;41086;46.736;15.666;2024-01-07T10:04:31;97327.81;;;8.21;99.01
55217;BME280;41086;46.736;15.666;2024-01-07T10:06:58;97335.59;;;8.11;98.85
55217;BME280;41086;46.736;15.666;2024-01-07T10:09:29;97343.16;;;8.05;99.19
55217;BME280;41086;46.736;15.666;2024-01-07T10:11:56;97335.25;;;8.05;99.53
55217;BME280;41086;46.736;15.666;2024-01-07T10:14:24;97316.59;;;7.84;99.24
55217;BME280;41086;46.736;15.666;2024-01-07T10:16:56;97327.66;;;8.00;100.00
55217;BME280;41086;46.736;15.666;2024-01-07T10:19:25;97333.06;;;7.98;99.74
55217;BME280;41086;46.736;15.666;2024-01-07T10:22:02;97326.00;;;7.99;99.95
55217;BME280;41086;46.736;15.666;2024-01-07T10:24:38;97332.94;;;8.00;100.00
55217;BME280;41086;46.736;15.666;2024-01-07T10:27:08;97335.25;;;8.05;100.00
55217;BME280;41086;46.736;15.666;2024-01-07T10:29:35;97333.78;;;8.00;99.60
55217;BME280;41086;46.736;15.666;2024-01-07T10:32:02;97336.66;;;7.97;99.74
55217;BME280;41086;46.736;15.666;2024-01-07T10:34:33;97322.97;;;7.92;98.77
55217;BME280;41086;46.736;15.666;2024-01-07T10:37:03;97319.63;;;7.90;99.79
55217;BME280;41086;46.736;15.666;2024-01-07T10:39:33;97311.31;;;7.84;99.64
55217;BME280;41086;46.736;15.666;2024-01-07T10:42:00;97323.84;;;7.93;100.00
55217;BME280;41086;46.736;15.666;2024-01-07T10:44:32;97319.50;;;7.92;100.00
55217;BME280;41086;46.736;15.666;2024-01-07T10:47:00;97314.47;;;8.00;100.00
55217;BME280;41086;46.736;15.666;2024-01-07T10:49:31;97319.91;;;8.10;100.00
55217;BME280;41086;46.736;15.666;2024-01-07T10:52:02;97323.28;;;8.12;99.68
55217;BME280;41086;46.736;15.666;2024-01-07T10:54:34;97318.81;;;8.12;99.70
55217;BME280;41086;46.736;15.666;2024-01-07T10:57:21;97317.84;;;8.13;99.23
55217;BME280;41086;46.736;15.666;2024-01-07T10:59:52;97323.63;;;8.07;98.96
55217;BME280;41086;46.736;15.666;2024-01-07T11:02:23;97315.44;;;7.99;98.70
55217;BME280;41086;46.736;15.666;2024-01-07T11:05:09;97321.31;;;8.03;98.20
55217;BME280;41086;46.736;15.666;2024-01-07T11:07:42;97297.56;;;7.91;98.75
55217;BME280;41086;46.736;15.666;2024-01-07T11:10:19;97311.47;;;7.93;97.76
55217;BME280;41086;46.736;15.666;2024-01-07T11:12:54;97315.19;;;7.91;98.12
55217;BME280;41086;46.736;15.666;2024-01-07T11:18:20;97312.88;;;7.86;98.11
55217;BME280;41086;46.736;15.666;2024-01-07T11:20:48;97317.56;;;7.83;97.86
55217;BME280;41086;46.736;15.666;2024-01-07T11:26:02;97305.31;;;7.70;97.97
55217;BME280;41086;46.736;15.666;2024-01-07T11:28:54;97312.72;;;7.65;97.45
55217;BME280;41086;46.736;15.666;2024-01-07T11:34:08;97314.25;;;7.57;97.52
55217;BME280;41086;46.736;15.666;2024-01-07T11:36:36;97319.28;;;7.60;97.96
55217;BME280;41086;46.736;15.666;2024-01-07T11:39:05;97313.56;;;7.66;98.03
55217;BME280;41086;46.736;15.666;2024-01-07T11:41:37;97315.16;;;7.68;97.98
55217;BME280;41086;46.736;15.666;2024-01-07T11:44:07;97274.41;;;7.37;97.24
55217;BME280;41086;46.736;15.666;2024-01-07T11:46:38;97312.84;;;7.64;98.18
55217;BME280;41086;46.736;15.666;2024-01-07T11:49:08;97306.97;;;7.60;97.63
55217;BME280;41086;46.736;15.666;2024-01-07T11:51:37;97310.06;;;7.65;97.80
55217;BME280;41086;46.736;15.666;2024-01-07T11:54:05;97312.13;;;7.62;97.81
55217;BME280;41086;46.736;15.666;2024-01-07T11:56:33;97322.31;;;7.66;97.53
55217;BME280;41086;46.736;15.666;2024-01-07T11:59:01;97322.91;;;7.70;97.52
55217;BME280;41086;46.736;15.666;2024-01-07T12:01:29;97318.25;;;7.73;98.05
55217;BME280;41086;46.736;15.666;2024-01-07T12:03:57;97316.09;;;7.78;97.15
55217;BME280;41086;46.736;15.666;2024-01-07T12:06:25;97320.06;;;7.73;96.85
55217;BME280;41086;46.736;15.666;2024-01-07T12:08:53;97313.34;;;7.69;97.17
55217;BME280;41086;46.736;15.666;2024-01-07T12:11:23;97318.47;;;7.70;96.61
55217;BME280;41086;46.736;15.666;2024-01-07T12:13:54;97288.25;;;7.52;97.05
55217;BME280;41086;46.736;15.666;2024-01-07T12:16:23;97305.19;;;7.72;97.41
55217;BME280;41086;46.736;15.666;2024-01-07T12:18:52;97317.69;;;7.81;97.27
55217;BME280;41086;46.736;15.666;2024-01-07T12:21:23;97313.22;;;7.70;96.56
55217;BME280;41086;46.736;15.666;2024-01-07T12:23:51;97315.59;;;7.62;95.80
55217;BME280;41086;46.736;15.666;2024-01-07T12:26:19;97301.63;;;7.49;96.24
55217;BME280;41086;46.736;15.666;2024-01-07T12:28:59;97324.09;;;7.54;96.14
55217;BME280;41086;46.736;15.666;2024-01-07T12:31:34;97324.09;;;7.54;95.48
55217;BME280;41086;46.736;15.666;2024-01-07T12:34:03;97322.91;;;7.35;95.97
55217;BME280;41086;46.736;15.666;2024-01-07T12:36:34;97319.34;;;7.36;96.33
55217;BME280;41086;46.736;15.666;2024-01-07T12:39:02;97326.66;;;7.43;96.96
55217;BME280;41086;46.736;15.666;2024-01-07T12:41:33;97324.25;;;7.40;96.54
55217;BME280;41086;46.736;15.666;2024-01-07T12:44:02;97313.44;;;7.32;95.93
55217;BME280;41086;46.736;15.666;2024-01-07T12:46:30;97324.72;;;7.34;95.99
55217;BME280;41086;46.736;15.666;2024-01-07T12:48:59;97330.59;;;7.38;95.60
55217;BME280;41086;46.736;15.666;2024-01-07T12:51:31;97329.22;;;7.21;95.96
55217;BME280;41086;46.736;15.666;2024-01-07T12:53:59;97333.13;;;7.15;95.57
55217;BME280;41086;46.736;15.666;2024-01-07T12:56:31;97334.44;;;7.09;96.37
55217;BME280;41086;46.736;15.666;2024-01-07T12:58:59;97336.00;;;7.12;95.59
55217;BME280;41086;46.736;15.666;2024-01-07T13:01:27;97316.75;;;6.99;95.38
55217;BME280;41086;46.736;15.666;2024-01-07T13:03:55;97339.75;;;7.21;95.10
55217;BME280;41086;46.736;15.666;2024-01-07T13:06:23;97342.84;;;7.15;95.20